sensor_id;sensor_type;location;lat;lon;timestamp;temperature;humidity
59311;DHT22;45078;51.654;21.250;2023-04-25T00:01:21;9.80;99.90
59311;DHT22;45078;51.654;21.250;2023-04-25T00:03:47;9.80;99.90
59311;DHT22;45078;51.654;21.250;2023-04-25T00:06:14;9.90;99.90
59311;DHT22;45078;51.654;21.250;2023-04-25T00:08:40;9.90;99.90
59311;DHT22;45078;51.654;21.250;2023-04-25T00:11:06;9.90;99.90
59311;DHT22;45078;51.654;21.250;2023-04-25T00:13:32;9.90;99.90
59311;DHT22;45078;51.654;21.250;2023-04-25T00:15:58;9.80;99.90
59311;DHT22;45078;51.654;21.250;2023-04-25T00:18:24;9.80;99.90
59311;DHT22;45078;51.654;21.250;2023-04-25T00:20:50;9.80;99.90
59311;DHT22;45078;51.654;21.250;2023-04-25T00:23:16;9.80;99.90
59311;DHT22;45078;51.654;21.250;2023-04-25T00:25:46;9.80;99.90
59311;DHT22;45078;51.654;21.250;2023-04-25T00:28:12;9.80;99.90
59311;DHT22;45078;51.654;21.250;2023-04-25T00:30:39;9.70;99.90
59311;DHT22;45078;51.654;21.250;2023-04-25T00:33:06;9.70;99.90
59311;DHT22;45078;51.654;21.250;2023-04-25T00:35:32;9.60;99.90
59311;DHT22;45078;51.654;21.250;2023-04-25T00:37:58;9.60;99.90
59311;DHT22;45078;51.654;21.250;2023-04-25T00:40:24;9.50;99.90
59311;DHT22;45078;51.654;21.250;2023-04-25T00:42:52;9.50;99.90
59311;DHT22;45078;51.654;21.250;2023-04-25T00:45:18;9.50;99.90
59311;DHT22;45078;51.654;21.250;2023-04-25T00:47:45;9.60;99.90
59311;DHT22;45078;51.654;21.250;2023-04-25T00:50:11;9.60;99.90
59311;DHT22;45078;51.654;21.250;2023-04-25T00:52:43;9.60;99.90
59311;DHT22;45078;51.654;21.250;2023-04-25T00:55:10;9.80;99.90
59311;DHT22;45078;51.654;21.250;2023-04-25T00:57:36;9.80;99.90
59311;DHT22;45078;51.654;21.250;2023-04-25T01:00:07;9.90;99.90
59311;DHT22;45078;51.654;21.250;2023-04-25T01:02:35;10.00;99.90
59311;DHT22;45078;51.654;21.250;2023-04-25T01:05:02;10.00;99.90
59311;DHT22;45078;51.654;21.250;2023-04-25T01:07:28;10.10;99.90
59311;DHT22;45078;51.654;21.250;2023-04-25T01:09:54;10.10;99.90
59311;DHT22;45078;51.654;21.250;2023-04-25T01:12:20;10.10;99.90
59311;DHT22;45078;51.654;21.250;2023-04-25T01:14:46;10.00;99.90
59311;DHT22;45078;51.654;21.250;2023-04-25T01:17:13;10.00;99.90
59311;DHT22;45078;51.654;21.250;2023-04-25T01:19:40;9.90;99.90
59311;DHT22;45078;51.654;21.250;2023-04-25T01:22:06;9.90;99.90
59311;DHT22;45078;51.654;21.250;2023-04-25T01:24:33;9.80;99.90
59311;DHT22;45078;51.654;21.250;2023-04-25T01:27:00;9.80;99.90
59311;DHT22;45078;51.654;21.250;2023-04-25T01:29:27;9.80;99.90
59311;DHT22;45078;51.654;21.250;2023-04-25T01:31:54;9.80;99.90
59311;DHT22;45078;51.654;21.250;2023-04-25T01:34:20;9.70;99.90
59311;DHT22;45078;51.654;21.250;2023-04-25T01:36:49;9.80;99.90
59311;DHT22;45078;51.654;21.250;2023-04-25T01:39:16;9.80;99.90
59311;DHT22;45078;51.654;21.250;2023-04-25T01:41:42;9.80;99.90
59311;DHT22;45078;51.654;21.250;2023-04-25T01:44:09;9.80;99.90
59311;DHT22;45078;51.654;21.250;2023-04-25T01:46:35;9.80;99.90
59311;DHT22;45078;51.654;21.250;2023-04-25T01:49:01;9.70;99.90
59311;DHT22;45078;51.654;21.250;2023-04-25T01:51:27;9.70;99.90
59311;DHT22;45078;51.654;21.250;2023-04-25T01:53:53;9.80;99.90
59311;DHT22;45078;51.654;21.250;2023-04-25T01:58:54;9.80;99.90
59311;DHT22;45078;51.654;21.250;2023-04-25T02:01:20;9.80;99.90
59311;DHT22;45078;51.654;21.250;2023-04-25T02:03:46;9.80;99.90
59311;DHT22;45078;51.654;21.250;2023-04-25T02:06:12;9.90;99.90
59311;DHT22;45078;51.654;21.250;2023-04-25T02:08:38;9.90;99.90
59311;DHT22;45078;51.654;21.250;2023-04-25T02:11:04;9.90;99.90
59311;DHT22;45078;51.654;21.250;2023-04-25T02:13:29;10.10;99.90
59311;DHT22;45078;51.654;21.250;2023-04-25T02:15:55;10.10;99.90
59311;DHT22;45078;51.654;21.250;2023-04-25T02:18:21;10.10;99.90
59311;DHT22;45078;51.654;21.250;2023-04-25T02:20:47;10.10;99.90
59311;DHT22;45078;51.654;21.250;2023-04-25T02:23:13;10.00;99.90
59311;DHT22;45078;51.654;21.250;2023-04-25T02:25:41;10.00;99.90
59311;DHT22;45078;51.654;21.250;2023-04-25T02:28:07;9.90;99.90
59311;DHT22;45078;51.654;21.250;2023-04-25T02:30:33;9.90;99.90
59311;DHT22;45078;51.654;21.250;2023-04-25T02:32:59;9.90;99.90
59311;DHT22;45078;51.654;21.250;2023-04-25T02:35:25;10.00;99.90
59311;DHT22;45078;51.654;21.250;2023-04-25T02:37:51;10.00;99.90
59311;DHT22;45078;51.654;21.250;2023-04-25T02:40:17;9.80;99.90
59311;DHT22;45078;51.654;21.250;2023-04-25T02:42:43;9.90;99.90
59311;DHT22;45078;51.654;21.250;2023-04-25T02:45:11;9.90;99.90
59311;DHT22;45078;51.654;21.250;2023-04-25T02:47:37;9.80;99.90
59311;DHT22;45078;51.654;21.250;2023-04-25T02:50:03;9.80;99.90
59311;DHT22;45078;51.654;21.250;2023-04-25T02:52:29;9.70;99.90
59311;DHT22;45078;51.654;21.250;2023-04-25T02:54:55;9.70;99.90
59311;DHT22;45078;51.654;21.250;2023-04-25T02:57:22;9.70;99.90
59311;DHT22;45078;51.654;21.250;2023-04-25T02:59:48;9.60;99.90
59311;DHT22;45078;51.654;21.250;2023-04-25T03:02:14;9.70;99.90
59311;DHT22;45078;51.654;21.250;2023-04-25T03:04:40;9.70;99.90
59311;DHT22;45078;51.654;21.250;2023-04-25T03:07:07;9.70;99.90
59311;DHT22;45078;51.654;21.250;2023-04-25T03:09:33;9.70;99.90
59311;DHT22;45078;51.654;21.250;2023-04-25T03:11:59;9.60;99.90
59311;DHT22;45078;51.654;21.250;2023-04-25T03:14:25;9.50;99.90
59311;DHT22;45078;51.654;21.250;2023-04-25T03:16:51;9.50;99.90
59311;DHT22;45078;51.654;21.250;2023-04-25T03:19:17;9.40;99.90
59311;DHT22;45078;51.654;21.250;2023-04-25T03:21:43;9.40;99.90
59311;DHT22;45078;51.654;21.250;2023-04-25T03:24:10;9.40;99.90
59311;DHT22;45078;51.654;21.250;2023-04-25T03:26:36;9.40;99.90
59311;DHT22;45078;51.654;21.250;2023-04-25T03:29:02;9.60;99.90
59311;DHT22;45078;51.654;21.250;2023-04-25T03:31:28;9.60;99.90
59311;DHT22;45078;51.654;21.250;2023-04-25T03:33:54;9.70;99.90
59311;DHT22;45078;51.654;21.250;2023-04-25T03:36:20;9.80;99.90
59311;DHT22;45078;51.654;21.250;2023-04-25T03:38:46;9.80;99.90
59311;DHT22;45078;51.654;21.250;2023-04-25T03:41:14;9.90;99.90
59311;DHT22;45078;51.654;21.250;2023-04-25T03:43:40;10.00;99.90
59311;DHT22;45078;51.654;21.250;2023-04-25T03:46:06;10.00;99.90
59311;DHT22;45078;51.654;21.250;2023-04-25T03:48:32;10.00;99.90
59311;DHT22;45078;51.654;21.250;2023-04-25T03:50:58;10.10;99.90
59311;DHT22;45078;51.654;21.250;2023-04-25T03:53:25;10.20;99.90
59311;DHT22;45078;51.654;21.250;2023-04-25T03:55:51;10.30;99.90
59311;DHT22;45078;51.654;21.250;2023-04-25T03:58:17;10.40;99.90
59311;DHT22;45078;51.654;21.250;2023-04-25T04:00:43;10.40;99.90
59311;DHT22;45078;51.654;21.250;2023-04-25T04:03:09;10.50;99.90
59311;DHT22;45078;51.654;21.250;2023-04-25T04:05:36;10.50;99.90
59311;DHT22;45078;51.654;21.250;2023-04-25T04:08:02;10.60;99.90
59311;DHT22;45078;51.654;21.250;2023-04-25T04:10:28;10.70;99.90
59311;DHT22;45078;51.654;21.250;2023-04-25T04:12:54;10.70;99.90
59311;DHT22;45078;51.654;21.250;2023-04-25T04:15:20;10.80;99.90
59311;DHT22;45078;51.654;21.250;2023-04-25T04:17:47;10.90;99.90
59311;DHT22;45078;51.654;21.250;2023-04-25T04:20:13;11.00;99.90
59311;DHT22;45078;51.654;21.250;2023-04-25T04:22:39;11.00;99.90
59311;DHT22;45078;51.654;21.250;2023-04-25T04:25:05;11.00;99.90
59311;DHT22;45078;51.654;21.250;2023-04-25T04:27:32;11.10;99.90
59311;DHT22;45078;51.654;21.250;2023-04-25T04:29:58;11.10;99.90
59311;DHT22;45078;51.654;21.250;2023-04-25T04:32:24;11.10;99.90
59311;DHT22;45078;51.654;21.250;2023-04-25T04:34:50;11.10;99.90
59311;DHT22;45078;51.654;21.250;2023-04-25T04:37:17;11.10;99.90
59311;DHT22;45078;51.654;21.250;2023-04-25T04:39:44;11.10;99.90
59311;DHT22;45078;51.654;21.250;2023-04-25T04:42:09;11.20;99.90
59311;DHT22;45078;51.654;21.250;2023-04-25T04:44:37;11.20;99.90
59311;DHT22;45078;51.654;21.250;2023-04-25T04:47:04;11.20;99.90
59311;DHT22;45078;51.654;21.250;2023-04-25T04:49:32;11.30;99.90
59311;DHT22;45078;51.654;21.250;2023-04-25T04:51:58;11.30;99.90
59311;DHT22;45078;51.654;21.250;2023-04-25T04:54:25;11.30;99.90
59311;DHT22;45078;51.654;21.250;2023-04-25T04:56:52;11.30;99.90
59311;DHT22;45078;51.654;21.250;2023-04-25T04:59:18;11.30;99.90
59311;DHT22;45078;51.654;21.250;2023-04-25T05:01:44;11.30;99.90
59311;DHT22;45078;51.654;21.250;2023-04-25T05:04:11;11.20;99.90
59311;DHT22;45078;51.654;21.250;2023-04-25T05:06:37;11.20;99.90
59311;DHT22;45078;51.654;21.250;2023-04-25T05:09:03;11.20;99.90
59311;DHT22;45078;51.654;21.250;2023-04-25T05:11:29;11.20;99.90
59311;DHT22;45078;51.654;21.250;2023-04-25T05:13:55;11.20;99.90
59311;DHT22;45078;51.654;21.250;2023-04-25T05:16:21;11.20;99.90
59311;DHT22;45078;51.654;21.250;2023-04-25T05:18:47;11.20;99.90
59311;DHT22;45078;51.654;21.250;2023-04-25T05:21:13;11.10;99.90
59311;DHT22;45078;51.654;21.250;2023-04-25T05:23:39;11.10;99.90
59311;DHT22;45078;51.654;21.250;2023-04-25T05:26:05;11.00;99.90
59311;DHT22;45078;51.654;21.250;2023-04-25T05:28:31;11.00;99.90
59311;DHT22;45078;51.654;21.250;2023-04-25T05:30:57;10.90;99.90
59311;DHT22;45078;51.654;21.250;2023-04-25T05:33:23;11.00;99.90
59311;DHT22;45078;51.654;21.250;2023-04-25T05:35:48;10.90;99.90
59311;DHT22;45078;51.654;21.250;2023-04-25T05:38:14;10.90;99.90
59311;DHT22;45078;51.654;21.250;2023-04-25T05:40:41;10.90;99.90
59311;DHT22;45078;51.654;21.250;2023-04-25T05:43:07;10.80;99.90
59311;DHT22;45078;51.654;21.250;2023-04-25T05:45:33;10.80;99.90
59311;DHT22;45078;51.654;21.250;2023-04-25T05:47:59;10.80;99.90
59311;DHT22;45078;51.654;21.250;2023-04-25T05:50:25;10.80;99.90
59311;DHT22;45078;51.654;21.250;2023-04-25T05:52:51;10.90;99.90
59311;DHT22;45078;51.654;21.250;2023-04-25T05:55:17;10.90;99.90
59311;DHT22;45078;51.654;21.250;2023-04-25T05:57:43;10.90;99.90
59311;DHT22;45078;51.654;21.250;2023-04-25T06:00:12;10.80;99.90
59311;DHT22;45078;51.654;21.250;2023-04-25T06:02:38;10.80;99.90
59311;DHT22;45078;51.654;21.250;2023-04-25T06:05:04;10.80;99.90
59311;DHT22;45078;51.654;21.250;2023-04-25T06:07:30;10.90;99.90
59311;DHT22;45078;51.654;21.250;2023-04-25T06:09:56;10.90;99.90
59311;DHT22;45078;51.654;21.250;2023-04-25T06:12:22;10.90;99.90
59311;DHT22;45078;51.654;21.250;2023-04-25T06:14:48;10.90;99.90
59311;DHT22;45078;51.654;21.250;2023-04-25T06:17:14;10.90;99.90
59311;DHT22;45078;51.654;21.250;2023-04-25T06:19:40;10.90;99.90
59311;DHT22;45078;51.654;21.250;2023-04-25T06:22:07;11.00;99.90
59311;DHT22;45078;51.654;21.250;2023-04-25T06:24:33;11.00;99.90
59311;DHT22;45078;51.654;21.250;2023-04-25T06:26:59;11.00;99.90
59311;DHT22;45078;51.654;21.250;2023-04-25T06:29:25;11.00;99.90
59311;DHT22;45078;51.654;21.250;2023-04-25T06:31:51;11.00;99.90
59311;DHT22;45078;51.654;21.250;2023-04-25T06:34:17;10.90;99.90
59311;DHT22;45078;51.654;21.250;2023-04-25T06:36:43;10.90;99.90
59311;DHT22;45078;51.654;21.250;2023-04-25T06:39:10;10.90;99.90
59311;DHT22;45078;51.654;21.250;2023-04-25T06:41:36;10.80;99.90
59311;DHT22;45078;51.654;21.250;2023-04-25T06:44:02;10.70;99.90
59311;DHT22;45078;51.654;21.250;2023-04-25T06:46:28;10.70;99.90
59311;DHT22;45078;51.654;21.250;2023-04-25T06:48:54;10.60;99.90
59311;DHT22;45078;51.654;21.250;2023-04-25T06:51:21;10.70;99.90
59311;DHT22;45078;51.654;21.250;2023-04-25T06:53:46;10.60;99.90
59311;DHT22;45078;51.654;21.250;2023-04-25T06:56:12;10.60;99.90
59311;DHT22;45078;51.654;21.250;2023-04-25T06:58:38;10.70;99.90
59311;DHT22;45078;51.654;21.250;2023-04-25T07:01:04;10.70;99.90
59311;DHT22;45078;51.654;21.250;2023-04-25T07:03:30;10.60;99.90
59311;DHT22;45078;51.654;21.250;2023-04-25T07:05:56;10.60;99.90
59311;DHT22;45078;51.654;21.250;2023-04-25T07:08:21;10.60;99.90
59311;DHT22;45078;51.654;21.250;2023-04-25T07:10:47;10.50;99.90
59311;DHT22;45078;51.654;21.250;2023-04-25T07:13:13;10.50;99.90
59311;DHT22;45078;51.654;21.250;2023-04-25T07:15:39;10.50;99.90
59311;DHT22;45078;51.654;21.250;2023-04-25T07:18:05;10.40;99.90
59311;DHT22;45078;51.654;21.250;2023-04-25T07:20:30;10.40;99.90
59311;DHT22;45078;51.654;21.250;2023-04-25T07:22:57;10.30;99.90
59311;DHT22;45078;51.654;21.250;2023-04-25T07:25:23;10.30;99.90
59311;DHT22;45078;51.654;21.250;2023-04-25T07:27:49;10.20;99.90
59311;DHT22;45078;51.654;21.250;2023-04-25T07:30:15;10.20;99.90
59311;DHT22;45078;51.654;21.250;2023-04-25T07:32:41;10.20;99.90
59311;DHT22;45078;51.654;21.250;2023-04-25T07:35:07;10.30;99.90
59311;DHT22;45078;51.654;21.250;2023-04-25T07:37:36;10.40;99.90
59311;DHT22;45078;51.654;21.250;2023-04-25T07:40:03;10.40;99.90
59311;DHT22;45078;51.654;21.250;2023-04-25T07:42:32;10.40;99.90
59311;DHT22;45078;51.654;21.250;2023-04-25T07:44:58;10.40;99.90
59311;DHT22;45078;51.654;21.250;2023-04-25T07:47:23;10.40;99.90
59311;DHT22;45078;51.654;21.250;2023-04-25T07:49:50;10.40;99.90
59311;DHT22;45078;51.654;21.250;2023-04-25T07:52:16;10.30;99.90
59311;DHT22;45078;51.654;21.250;2023-04-25T07:54:41;10.10;99.90
59311;DHT22;45078;51.654;21.250;2023-04-25T07:57:07;10.10;99.90
59311;DHT22;45078;51.654;21.250;2023-04-25T07:59:34;10.10;99.90
59311;DHT22;45078;51.654;21.250;2023-04-25T08:02:00;10.00;99.90
59311;DHT22;45078;51.654;21.250;2023-04-25T08:04:27;10.00;99.90
59311;DHT22;45078;51.654;21.250;2023-04-25T08:06:53;10.00;99.90
59311;DHT22;45078;51.654;21.250;2023-04-25T08:09:22;10.00;99.90
59311;DHT22;45078;51.654;21.250;2023-04-25T08:11:48;9.90;99.90
59311;DHT22;45078;51.654;21.250;2023-04-25T08:14:14;9.80;99.90
59311;DHT22;45078;51.654;21.250;2023-04-25T08:16:39;9.80;99.90
59311;DHT22;45078;51.654;21.250;2023-04-25T08:19:06;9.80;99.90
59311;DHT22;45078;51.654;21.250;2023-04-25T08:21:32;9.60;99.90
59311;DHT22;45078;51.654;21.250;2023-04-25T08:23:58;9.60;99.90
59311;DHT22;45078;51.654;21.250;2023-04-25T08:26:24;9.60;99.90
59311;DHT22;45078;51.654;21.250;2023-04-25T08:28:51;9.60;99.90
59311;DHT22;45078;51.654;21.250;2023-04-25T08:31:17;9.60;99.90
59311;DHT22;45078;51.654;21.250;2023-04-25T08:33:43;9.60;99.90
59311;DHT22;45078;51.654;21.250;2023-04-25T08:36:10;9.60;99.90
59311;DHT22;45078;51.654;21.250;2023-04-25T08:38:36;9.60;99.90
59311;DHT22;45078;51.654;21.250;2023-04-25T08:41:02;9.60;99.90
59311;DHT22;45078;51.654;21.250;2023-04-25T08:43:29;9.60;99.90
59311;DHT22;45078;51.654;21.250;2023-04-25T08:46:00;9.60;99.90
59311;DHT22;45078;51.654;21.250;2023-04-25T08:48:30;9.50;99.90
59311;DHT22;45078;51.654;21.250;2023-04-25T08:50:57;9.50;99.90
59311;DHT22;45078;51.654;21.250;2023-04-25T08:53:28;9.50;99.90
59311;DHT22;45078;51.654;21.250;2023-04-25T08:55:55;9.50;99.90
59311;DHT22;45078;51.654;21.250;2023-04-25T08:58:22;9.40;99.90
59311;DHT22;45078;51.654;21.250;2023-04-25T09:00:49;9.40;99.90
59311;DHT22;45078;51.654;21.250;2023-04-25T09:03:16;9.30;99.90
59311;DHT22;45078;51.654;21.250;2023-04-25T09:05:43;9.30;99.90
59311;DHT22;45078;51.654;21.250;2023-04-25T09:08:09;9.20;99.90
59311;DHT22;45078;51.654;21.250;2023-04-25T09:10:35;9.20;99.90
59311;DHT22;45078;51.654;21.250;2023-04-25T09:13:06;9.20;99.90
59311;DHT22;45078;51.654;21.250;2023-04-25T09:15:32;9.20;99.90
59311;DHT22;45078;51.654;21.250;2023-04-25T09:17:59;9.20;99.90
59311;DHT22;45078;51.654;21.250;2023-04-25T09:20:25;9.20;99.90
59311;DHT22;45078;51.654;21.250;2023-04-25T09:23:04;9.20;99.90
59311;DHT22;45078;51.654;21.250;2023-04-25T09:25:36;9.30;99.90
59311;DHT22;45078;51.654;21.250;2023-04-25T09:28:05;9.30;99.90
59311;DHT22;45078;51.654;21.250;2023-04-25T09:30:33;9.30;99.90
59311;DHT22;45078;51.654;21.250;2023-04-25T09:33:12;9.30;99.90
59311;DHT22;45078;51.654;21.250;2023-04-25T09:35:43;9.30;99.90
59311;DHT22;45078;51.654;21.250;2023-04-25T09:38:13;9.30;99.90
59311;DHT22;45078;51.654;21.250;2023-04-25T09:40:45;9.40;99.90
59311;DHT22;45078;51.654;21.250;2023-04-25T09:43:21;9.40;99.90
59311;DHT22;45078;51.654;21.250;2023-04-25T09:45:47;9.50;99.90
59311;DHT22;45078;51.654;21.250;2023-04-25T09:48:21;9.50;99.90
59311;DHT22;45078;51.654;21.250;2023-04-25T09:51:09;9.60;99.90
59311;DHT22;45078;51.654;21.250;2023-04-25T09:53:40;9.60;99.90
59311;DHT22;45078;51.654;21.250;2023-04-25T09:56:08;9.60;99.90
59311;DHT22;45078;51.654;21.250;2023-04-25T09:58:36;9.60;99.90
59311;DHT22;45078;51.654;21.250;2023-04-25T10:01:04;9.60;99.90
59311;DHT22;45078;51.654;21.250;2023-04-25T10:03:33;9.60;99.90
59311;DHT22;45078;51.654;21.250;2023-04-25T10:06:00;9.70;99.90
59311;DHT22;45078;51.654;21.250;2023-04-25T10:08:35;9.70;99.90
59311;DHT22;45078;51.654;21.250;2023-04-25T10:11:05;9.70;99.90
59311;DHT22;45078;51.654;21.250;2023-04-25T10:13:33;9.60;99.90
59311;DHT22;45078;51.654;21.250;2023-04-25T10:16:01;9.60;99.90
59311;DHT22;45078;51.654;21.250;2023-04-25T10:18:29;9.60;99.90
59311;DHT22;45078;51.654;21.250;2023-04-25T10:20:57;9.70;99.90
59311;DHT22;45078;51.654;21.250;2023-04-25T10:23:24;9.70;99.90
59311;DHT22;45078;51.654;21.250;2023-04-25T10:25:51;9.80;99.90
59311;DHT22;45078;51.654;21.250;2023-04-25T10:28:18;9.80;99.90
59311;DHT22;45078;51.654;21.250;2023-04-25T10:31:03;9.80;99.90
59311;DHT22;45078;51.654;21.250;2023-04-25T10:33:35;9.80;99.90
59311;DHT22;45078;51.654;21.250;2023-04-25T10:36:21;9.90;99.90
59311;DHT22;45078;51.654;21.250;2023-04-25T10:38:49;9.90;99.90
59311;DHT22;45078;51.654;21.250;2023-04-25T10:41:19;9.80;99.90
59311;DHT22;45078;51.654;21.250;2023-04-25T10:43:49;9.90;99.90
59311;DHT22;45078;51.654;21.250;2023-04-25T10:46:21;9.90;99.90
59311;DHT22;45078;51.654;21.250;2023-04-25T10:48:55;9.90;99.90
59311;DHT22;45078;51.654;21.250;2023-04-25T10:54:10;9.90;99.90
59311;DHT22;45078;51.654;21.250;2023-04-25T10:56:39;9.90;99.90
59311;DHT22;45078;51.654;21.250;2023-04-25T10:59:08;9.90;99.90
59311;DHT22;45078;51.654;21.250;2023-04-25T11:01:54;10.00;99.90
59311;DHT22;45078;51.654;21.250;2023-04-25T11:04:33;10.00;99.90
59311;DHT22;45078;51.654;21.250;2023-04-25T11:07:34;10.00;99.90
59311;DHT22;45078;51.654;21.250;2023-04-25T11:10:04;10.00;99.90
59311;DHT22;45078;51.654;21.250;2023-04-25T11:12:31;10.00;99.90
59311;DHT22;45078;51.654;21.250;2023-04-25T11:15:02;10.10;99.90
59311;DHT22;45078;51.654;21.250;2023-04-25T11:17:28;10.20;99.90
59311;DHT22;45078;51.654;21.250;2023-04-25T11:19:54;10.20;99.90
59311;DHT22;45078;51.654;21.250;2023-04-25T11:22:22;10.10;99.90
59311;DHT22;45078;51.654;21.250;2023-04-25T11:24:49;10.10;99.90
59311;DHT22;45078;51.654;21.250;2023-04-25T11:27:16;10.20;99.90
59311;DHT22;45078;51.654;21.250;2023-04-25T11:29:42;10.20;99.90
59311;DHT22;45078;51.654;21.250;2023-04-25T11:32:08;10.30;99.90
59311;DHT22;45078;51.654;21.250;2023-04-25T11:34:34;10.30;99.90
59311;DHT22;45078;51.654;21.250;2023-04-25T11:37:01;10.40;99.90
59311;DHT22;45078;51.654;21.250;2023-04-25T11:39:28;10.40;99.90
59311;DHT22;45078;51.654;21.250;2023-04-25T11:41:55;10.60;99.90
59311;DHT22;45078;51.654;21.250;2023-04-25T11:44:21;10.60;99.90
59311;DHT22;45078;51.654;21.250;2023-04-25T11:46:48;10.70;99.90
59311;DHT22;45078;51.654;21.250;2023-04-25T11:49:15;10.70;99.90
59311;DHT22;45078;51.654;21.250;2023-04-25T11:51:46;10.70;99.90
59311;DHT22;45078;51.654;21.250;2023-04-25T11:54:12;10.70;99.90
59311;DHT22;45078;51.654;21.250;2023-04-25T11:56:42;10.80;99.90
59311;DHT22;45078;51.654;21.250;2023-04-25T11:59:08;10.70;99.90
59311;DHT22;45078;51.654;21.250;2023-04-25T12:01:39;10.60;99.90
59311;DHT22;45078;51.654;21.250;2023-04-25T12:04:24;10.60;99.90
59311;DHT22;45078;51.654;21.250;2023-04-25T12:06:53;10.50;99.90
59311;DHT22;45078;51.654;21.250;2023-04-25T12:09:32;10.40;99.90
59311;DHT22;45078;51.654;21.250;2023-04-25T12:12:00;10.50;99.90
59311;DHT22;45078;51.654;21.250;2023-04-25T12:14:33;10.60;99.90
59311;DHT22;45078;51.654;21.250;2023-04-25T12:17:02;10.50;99.90
59311;DHT22;45078;51.654;21.250;2023-04-25T12:19:40;10.50;99.90
59311;DHT22;45078;51.654;21.250;2023-04-25T12:22:20;10.60;99.90
59311;DHT22;45078;51.654;21.250;2023-04-25T12:24:46;10.60;99.90
59311;DHT22;45078;51.654;21.250;2023-04-25T12:27:14;10.60;99.90
59311;DHT22;45078;51.654;21.250;2023-04-25T12:29:53;10.70;99.90
59311;DHT22;45078;51.654;21.250;2023-04-25T12:32:19;10.70;99.90
59311;DHT22;45078;51.654;21.250;2023-04-25T12:34:45;10.70;99.90
59311;DHT22;45078;51.654;21.250;2023-04-25T12:37:11;10.60;99.90
59311;DHT22;45078;51.654;21.250;2023-04-25T12:39:37;10.60;99.90
59311;DHT22;45078;51.654;21.250;2023-04-25T12:42:03;10.60;99.90
59311;DHT22;45078;51.654;21.250;2023-04-25T12:44:30;10.50;99.90
59311;DHT22;45078;51.654;21.250;2023-04-25T12:46:56;10.40;99.90
59311;DHT22;45078;51.654;21.250;2023-04-25T12:49:22;10.30;99.90
59311;DHT22;45078;51.654;21.250;2023-04-25T12:51:48;10.30;99.90
59311;DHT22;45078;51.654;21.250;2023-04-25T12:54:15;10.10;99.90
59311;DHT22;45078;51.654;21.250;2023-04-25T12:56:41;10.10;99.90
59311;DHT22;45078;51.654;21.250;2023-04-25T12:59:07;10.10;99.90
59311;DHT22;45078;51.654;21.250;2023-04-25T13:01:33;10.10;99.90
59311;DHT22;45078;51.654;21.250;2023-04-25T13:03:59;10.10;99.90
59311;DHT22;45078;51.654;21.250;2023-04-25T13:06:25;10.10;99.90
59311;DHT22;45078;51.654;21.250;2023-04-25T13:08:51;10.10;99.90
59311;DHT22;45078;51.654;21.250;2023-04-25T13:11:17;10.10;99.90
59311;DHT22;45078;51.654;21.250;2023-04-25T13:13:44;10.10;99.90
59311;DHT22;45078;51.654;21.250;2023-04-25T13:16:12;10.10;99.90
59311;DHT22;45078;51.654;21.250;2023-04-25T13:18:41;10.00;99.90
59311;DHT22;45078;51.654;21.250;2023-04-25T13:21:09;10.00;99.90
59311;DHT22;45078;51.654;21.250;2023-04-25T13:23:36;10.00;99.90
59311;DHT22;45078;51.654;21.250;2023-04-25T13:26:02;10.00;99.90
59311;DHT22;45078;51.654;21.250;2023-04-25T13:28:28;10.00;99.90
59311;DHT22;45078;51.654;21.250;2023-04-25T13:30:54;10.00;99.90
59311;DHT22;45078;51.654;21.250;2023-04-25T13:33:21;10.00;99.90
59311;DHT22;45078;51.654;21.250;2023-04-25T13:35:48;10.00;99.90
59311;DHT22;45078;51.654;21.250;2023-04-25T13:38:23;9.90;99.90
59311;DHT22;45078;51.654;21.250;2023-04-25T13:40:50;9.90;99.90
59311;DHT22;45078;51.654;21.250;2023-04-25T13:43:19;9.90;99.90
59311;DHT22;45078;51.654;21.250;2023-04-25T13:45:46;10.00;99.90
59311;DHT22;45078;51.654;21.250;2023-04-25T13:48:12;10.00;99.90
59311;DHT22;45078;51.654;21.250;2023-04-25T13:50:37;10.00;99.90
59311;DHT22;45078;51.654;21.250;2023-04-25T13:53:03;10.00;99.90
59311;DHT22;45078;51.654;21.250;2023-04-25T13:55:29;9.90;99.90
59311;DHT22;45078;51.654;21.250;2023-04-25T13:57:55;9.90;99.90
59311;DHT22;45078;51.654;21.250;2023-04-25T14:00:21;9.90;99.90
59311;DHT22;45078;51.654;21.250;2023-04-25T14:02:47;9.90;99.90
59311;DHT22;45078;51.654;21.250;2023-04-25T14:05:13;9.90;99.90
59311;DHT22;45078;51.654;21.250;2023-04-25T14:07:39;9.90;99.90
59311;DHT22;45078;51.654;21.250;2023-04-25T14:10:05;9.90;99.90
59311;DHT22;45078;51.654;21.250;2023-04-25T14:12:32;9.90;99.90
59311;DHT22;45078;51.654;21.250;2023-04-25T14:14:58;9.90;99.90
59311;DHT22;45078;51.654;21.250;2023-04-25T14:17:24;9.80;99.90
59311;DHT22;45078;51.654;21.250;2023-04-25T14:19:50;9.80;99.90
59311;DHT22;45078;51.654;21.250;2023-04-25T14:22:16;9.80;99.90
59311;DHT22;45078;51.654;21.250;2023-04-25T14:24:42;9.80;99.90
59311;DHT22;45078;51.654;21.250;2023-04-25T14:27:08;9.70;99.90
59311;DHT22;45078;51.654;21.250;2023-04-25T14:29:34;9.80;99.90
59311;DHT22;45078;51.654;21.250;2023-04-25T14:32:00;9.80;99.90
59311;DHT22;45078;51.654;21.250;2023-04-25T14:34:27;9.70;99.90
59311;DHT22;45078;51.654;21.250;2023-04-25T14:36:53;9.70;99.90
59311;DHT22;45078;51.654;21.250;2023-04-25T14:39:19;9.70;99.90
59311;DHT22;45078;51.654;21.250;2023-04-25T14:41:45;9.70;99.90
59311;DHT22;45078;51.654;21.250;2023-04-25T14:44:11;9.60;99.90
59311;DHT22;45078;51.654;21.250;2023-04-25T14:46:39;9.50;99.90
59311;DHT22;45078;51.654;21.250;2023-04-25T14:49:05;9.60;99.90
59311;DHT22;45078;51.654;21.250;2023-04-25T14:51:30;9.60;99.90
59311;DHT22;45078;51.654;21.250;2023-04-25T14:53:57;9.50;99.90
59311;DHT22;45078;51.654;21.250;2023-04-25T14:56:23;9.50;99.90
59311;DHT22;45078;51.654;21.250;2023-04-25T14:58:49;9.60;99.90
59311;DHT22;45078;51.654;21.250;2023-04-25T15:01:15;9.60;99.90
59311;DHT22;45078;51.654;21.250;2023-04-25T15:03:41;9.60;99.90
59311;DHT22;45078;51.654;21.250;2023-04-25T15:06:07;9.70;99.90
59311;DHT22;45078;51.654;21.250;2023-04-25T15:08:33;9.70;99.90
59311;DHT22;45078;51.654;21.250;2023-04-25T15:10:59;9.70;99.90
59311;DHT22;45078;51.654;21.250;2023-04-25T15:13:26;9.70;99.90
59311;DHT22;45078;51.654;21.250;2023-04-25T15:15:52;9.70;99.90
59311;DHT22;45078;51.654;21.250;2023-04-25T15:18:22;9.70;99.90
59311;DHT22;45078;51.654;21.250;2023-04-25T15:20:52;9.70;99.90
59311;DHT22;45078;51.654;21.250;2023-04-25T15:23:19;9.70;99.90
59311;DHT22;45078;51.654;21.250;2023-04-25T15:25:46;9.60;99.90
59311;DHT22;45078;51.654;21.250;2023-04-25T15:28:12;9.60;99.90